Strona główna
METAR-TAF:

METAR-TAF

Lotnisko :

Dijon, Francja

Szerokość geograficzna: 47-16N, Długość geograficzna: 005-05E, wysokość: 222 m

Aktualna obserwacja pogody

Raport powstał 43 minut temu, godzina 05:00 UTC
Wiatr 4 kt od północno-północny zachód
Temperatura 12°C
Wilgotność 82%
Ciśnienie 1028 hPa
Widzialność 10 km lub więcej
Brak chmur poniżej 1500 m i brak chmur cumulonimbus

METAR: LFSD 280500Z AUTO 34004KT CAVOK 12/09 Q1028

czas: 07:43 (05:43 UTC)


TAF: brakujący

Obserwacja i prognoza pogody dla ponad 4000 lotnisk (raport METAR i TAF).

Dostępne stacje oznaczono żółtymi i czerwonymi punktami na mapie.

Najedź kursorem aby zobaczyć nazwę stacji.

Kliknij aby zobaczyć obserwacje i prognozy pogody.

Aby zmienić mapę: kliknij na zielony przycisk z czarnym krzyżykiem, aby powiększyć; na zielony przycisk z myślnikiem, aby pomniejszyć; na zielone strzałki, aby przejść do map sąsiednich.


METAR-TAF: